KPTW/PTW METAR and TAF weather

Enter ICAO airport designator
Station Type Date Time Source
KPTW METAR 2021/06/22 23:22 UTC NOAA

KPTW 222322Z AUTO 30007KT 10SM BKN030 BKN035 OVC046 17/12 A2988 RMK AO2 T01720122


Station Type Date Time Source
KPTW Decoded METAR 2021/06/22 23:22 UTC NOAA

POTTSTOWN LIMERICK AIRPORT, PA, United States (KPTW) 40-14N 075-33W 89M
Jun 22, 2021 - 07:22 PM EDT / 2021.06.22 2322 UTC
Wind: from the WNW (300 degrees) at 8 MPH (7 KT):0
Visibility: 10 mile(s):0
Sky conditions: overcast
Temperature: 63.0 F (17.2 C)
Dew Point: 54.0 F (12.2 C)
Relative Humidity: 72%
Pressure (altimeter): 29.88 in. Hg (1011 hPa)
ob: KPTW 222322Z AUTO 30007KT 10SM BKN030 BKN035 OVC046 17/12 A2988 RMK AO2 T01720122
cycle: 23

Station Type Date Time Source
KPTW TAF UTC NOAA

Error!

Example: see airport list